sensor_id;sensor_type;location;lat;lon;timestamp;pressure;altitude;pressure_sealevel;temperature;humidity
50867;BME280;36839;51.946;21.002;2023-01-24T00:01:46;102319.27;;;0.29;100.00
50867;BME280;36839;51.946;21.002;2023-01-24T00:04:19;102318.48;;;0.30;100.00
50867;BME280;36839;51.946;21.002;2023-01-24T00:06:47;102322.46;;;0.32;100.00
50867;BME280;36839;51.946;21.002;2023-01-24T00:09:15;102316.09;;;0.34;100.00
50867;BME280;36839;51.946;21.002;2023-01-24T00:11:53;102320.49;;;0.35;100.00
50867;BME280;36839;51.946;21.002;2023-01-24T00:14:21;102318.80;;;0.36;100.00
50867;BME280;36839;51.946;21.002;2023-01-24T00:16:48;102318.42;;;0.36;100.00
50867;BME280;36839;51.946;21.002;2023-01-24T00:19:15;102314.09;;;0.37;100.00
50867;BME280;36839;51.946;21.002;2023-01-24T00:21:43;102316.94;;;0.38;100.00
50867;BME280;36839;51.946;21.002;2023-01-24T00:24:11;102318.58;;;0.38;100.00
50867;BME280;36839;51.946;21.002;2023-01-24T00:26:40;102316.99;;;0.39;100.00
50867;BME280;36839;51.946;21.002;2023-01-24T00:29:10;102318.02;;;0.40;100.00
50867;BME280;36839;51.946;21.002;2023-01-24T00:31:37;102317.58;;;0.41;100.00
50867;BME280;36839;51.946;21.002;2023-01-24T00:34:04;102319.17;;;0.41;100.00
50867;BME280;36839;51.946;21.002;2023-01-24T00:36:31;102316.64;;;0.43;100.00
50867;BME280;36839;51.946;21.002;2023-01-24T00:39:00;102318.35;;;0.44;100.00
50867;BME280;36839;51.946;21.002;2023-01-24T00:41:27;102313.83;;;0.44;100.00
50867;BME280;36839;51.946;21.002;2023-01-24T00:43:55;102314.21;;;0.45;100.00
50867;BME280;36839;51.946;21.002;2023-01-24T00:46:23;102313.20;;;0.46;100.00
50867;BME280;36839;51.946;21.002;2023-01-24T00:48:50;102310.38;;;0.47;100.00
50867;BME280;36839;51.946;21.002;2023-01-24T00:51:19;102306.65;;;0.46;100.00
50867;BME280;36839;51.946;21.002;2023-01-24T00:53:46;102303.54;;;0.45;100.00
50867;BME280;36839;51.946;21.002;2023-01-24T00:56:13;102307.06;;;0.44;100.00
50867;BME280;36839;51.946;21.002;2023-01-24T00:58:44;102306.82;;;0.43;100.00
50867;BME280;36839;51.946;21.002;2023-01-24T01:01:12;102303.98;;;0.42;100.00
50867;BME280;36839;51.946;21.002;2023-01-24T01:03:39;102300.69;;;0.41;100.00
50867;BME280;36839;51.946;21.002;2023-01-24T01:06:12;102296.75;;;0.41;100.00
50867;BME280;36839;51.946;21.002;2023-01-24T01:08:40;102298.67;;;0.39;100.00
50867;BME280;36839;51.946;21.002;2023-01-24T01:11:11;102300.27;;;0.40;100.00
50867;BME280;36839;51.946;21.002;2023-01-24T01:13:40;102302.61;;;0.40;100.00
50867;BME280;36839;51.946;21.002;2023-01-24T01:16:11;102303.87;;;0.40;100.00
50867;BME280;36839;51.946;21.002;2023-01-24T01:18:42;102302.21;;;0.40;100.00
50867;BME280;36839;51.946;21.002;2023-01-24T01:21:18;102308.70;;;0.41;100.00
50867;BME280;36839;51.946;21.002;2023-01-24T01:23:50;102308.70;;;0.39;100.00
50867;BME280;36839;51.946;21.002;2023-01-24T01:26:21;102313.23;;;0.39;100.00
50867;BME280;36839;51.946;21.002;2023-01-24T01:28:52;102312.35;;;0.38;100.00
50867;BME280;36839;51.946;21.002;2023-01-24T01:31:20;102311.49;;;0.38;100.00
50867;BME280;36839;51.946;21.002;2023-01-24T01:33:48;102310.48;;;0.37;100.00
50867;BME280;36839;51.946;21.002;2023-01-24T01:36:16;102309.52;;;0.36;100.00
50867;BME280;36839;51.946;21.002;2023-01-24T01:38:44;102309.75;;;0.35;100.00
50867;BME280;36839;51.946;21.002;2023-01-24T01:41:14;102312.54;;;0.36;100.00
50867;BME280;36839;51.946;21.002;2023-01-24T01:43:42;102313.05;;;0.37;100.00
50867;BME280;36839;51.946;21.002;2023-01-24T01:46:40;102314.73;;;0.36;100.00
50867;BME280;36839;51.946;21.002;2023-01-24T01:49:17;102316.63;;;0.36;100.00
50867;BME280;36839;51.946;21.002;2023-01-24T01:51:49;102318.39;;;0.36;100.00
50867;BME280;36839;51.946;21.002;2023-01-24T01:54:24;102315.36;;;0.36;100.00
50867;BME280;36839;51.946;21.002;2023-01-24T01:57:09;102315.22;;;0.35;100.00
50867;BME280;36839;51.946;21.002;2023-01-24T01:59:54;102315.42;;;0.35;100.00
50867;BME280;36839;51.946;21.002;2023-01-24T02:02:46;102309.90;;;0.34;100.00
50867;BME280;36839;51.946;21.002;2023-01-24T02:05:19;102310.17;;;0.33;100.00
50867;BME280;36839;51.946;21.002;2023-01-24T02:08:00;102304.91;;;0.33;100.00
50867;BME280;36839;51.946;21.002;2023-01-24T02:10:31;102299.29;;;0.32;100.00
50867;BME280;36839;51.946;21.002;2023-01-24T02:13:16;102293.20;;;0.31;100.00
50867;BME280;36839;51.946;21.002;2023-01-24T02:15:47;102294.64;;;0.31;100.00
50867;BME280;36839;51.946;21.002;2023-01-24T02:18:36;102295.21;;;0.32;100.00
50867;BME280;36839;51.946;21.002;2023-01-24T02:21:08;102295.54;;;0.33;100.00
50867;BME280;36839;51.946;21.002;2023-01-24T02:24:07;102297.57;;;0.32;100.00
50867;BME280;36839;51.946;21.002;2023-01-24T02:26:38;102298.48;;;0.32;100.00
50867;BME280;36839;51.946;21.002;2023-01-24T02:29:10;102295.84;;;0.33;100.00
50867;BME280;36839;51.946;21.002;2023-01-24T02:32:02;102287.34;;;0.33;100.00
50867;BME280;36839;51.946;21.002;2023-01-24T02:34:30;102285.89;;;0.33;100.00
50867;BME280;36839;51.946;21.002;2023-01-24T02:37:01;102286.17;;;0.36;100.00
50867;BME280;36839;51.946;21.002;2023-01-24T02:39:40;102283.36;;;0.37;100.00
50867;BME280;36839;51.946;21.002;2023-01-24T02:42:15;102284.80;;;0.38;100.00
50867;BME280;36839;51.946;21.002;2023-01-24T02:47:35;102286.64;;;0.44;100.00
50867;BME280;36839;51.946;21.002;2023-01-24T02:50:05;102282.15;;;0.43;100.00
50867;BME280;36839;51.946;21.002;2023-01-24T02:52:34;102285.77;;;0.43;100.00
50867;BME280;36839;51.946;21.002;2023-01-24T02:55:21;102283.96;;;0.45;100.00
50867;BME280;36839;51.946;21.002;2023-01-24T02:57:50;102282.41;;;0.46;100.00
50867;BME280;36839;51.946;21.002;2023-01-24T03:00:38;102282.98;;;0.47;100.00
50867;BME280;36839;51.946;21.002;2023-01-24T03:03:26;102281.21;;;0.51;100.00
50867;BME280;36839;51.946;21.002;2023-01-24T03:05:54;102279.40;;;0.52;100.00
50867;BME280;36839;51.946;21.002;2023-01-24T03:08:29;102287.10;;;0.55;100.00
50867;BME280;36839;51.946;21.002;2023-01-24T03:10:57;102284.83;;;0.56;100.00
50867;BME280;36839;51.946;21.002;2023-01-24T03:13:25;102284.38;;;0.55;100.00
50867;BME280;36839;51.946;21.002;2023-01-24T03:16:12;102285.42;;;0.54;100.00
50867;BME280;36839;51.946;21.002;2023-01-24T03:19:01;102280.26;;;0.53;100.00
50867;BME280;36839;51.946;21.002;2023-01-24T03:21:48;102282.30;;;0.50;100.00
50867;BME280;36839;51.946;21.002;2023-01-24T03:24:35;102284.77;;;0.48;100.00
50867;BME280;36839;51.946;21.002;2023-01-24T03:27:21;102288.66;;;0.45;100.00
50867;BME280;36839;51.946;21.002;2023-01-24T03:30:08;102290.95;;;0.42;100.00
50867;BME280;36839;51.946;21.002;2023-01-24T03:32:59;102295.17;;;0.40;100.00
50867;BME280;36839;51.946;21.002;2023-01-24T03:35:50;102294.32;;;0.40;100.00
50867;BME280;36839;51.946;21.002;2023-01-24T03:38:24;102294.79;;;0.38;100.00
50867;BME280;36839;51.946;21.002;2023-01-24T03:41:10;102297.39;;;0.40;100.00
50867;BME280;36839;51.946;21.002;2023-01-24T03:43:37;102288.84;;;0.42;100.00
50867;BME280;36839;51.946;21.002;2023-01-24T03:46:05;102292.59;;;0.44;100.00
50867;BME280;36839;51.946;21.002;2023-01-24T03:48:33;102295.38;;;0.47;100.00
50867;BME280;36839;51.946;21.002;2023-01-24T03:51:04;102300.11;;;0.50;100.00
50867;BME280;36839;51.946;21.002;2023-01-24T03:53:51;102304.29;;;0.50;100.00
50867;BME280;36839;51.946;21.002;2023-01-24T03:56:18;102300.80;;;0.47;100.00
50867;BME280;36839;51.946;21.002;2023-01-24T03:58:47;102301.20;;;0.45;100.00
50867;BME280;36839;51.946;21.002;2023-01-24T04:01:15;102302.13;;;0.43;100.00
50867;BME280;36839;51.946;21.002;2023-01-24T04:03:42;102303.15;;;0.42;100.00
50867;BME280;36839;51.946;21.002;2023-01-24T04:06:09;102305.72;;;0.41;100.00
50867;BME280;36839;51.946;21.002;2023-01-24T04:08:37;102304.49;;;0.41;100.00
50867;BME280;36839;51.946;21.002;2023-01-24T04:11:05;102308.31;;;0.43;100.00
50867;BME280;36839;51.946;21.002;2023-01-24T04:13:32;102303.95;;;0.42;100.00
50867;BME280;36839;51.946;21.002;2023-01-24T04:16:00;102308.35;;;0.42;100.00
50867;BME280;36839;51.946;21.002;2023-01-24T04:18:28;102307.68;;;0.40;100.00
50867;BME280;36839;51.946;21.002;2023-01-24T04:20:56;102305.29;;;0.38;100.00
50867;BME280;36839;51.946;21.002;2023-01-24T04:23:24;102304.65;;;0.38;100.00
50867;BME280;36839;51.946;21.002;2023-01-24T04:25:51;102310.38;;;0.38;100.00
50867;BME280;36839;51.946;21.002;2023-01-24T04:28:25;102308.77;;;0.38;100.00
50867;BME280;36839;51.946;21.002;2023-01-24T04:30:57;102307.66;;;0.38;100.00
50867;BME280;36839;51.946;21.002;2023-01-24T04:33:33;102310.59;;;0.38;100.00
50867;BME280;36839;51.946;21.002;2023-01-24T04:36:01;102309.71;;;0.38;100.00
50867;BME280;36839;51.946;21.002;2023-01-24T04:38:29;102309.86;;;0.38;100.00
50867;BME280;36839;51.946;21.002;2023-01-24T04:40:58;102310.27;;;0.38;100.00
50867;BME280;36839;51.946;21.002;2023-01-24T04:43:26;102312.17;;;0.37;100.00
50867;BME280;36839;51.946;21.002;2023-01-24T04:45:55;102309.00;;;0.37;100.00
50867;BME280;36839;51.946;21.002;2023-01-24T04:48:24;102313.21;;;0.39;100.00
50867;BME280;36839;51.946;21.002;2023-01-24T04:51:01;102311.85;;;0.40;100.00
50867;BME280;36839;51.946;21.002;2023-01-24T04:53:30;102314.93;;;0.42;100.00
50867;BME280;36839;51.946;21.002;2023-01-24T04:56:01;102318.64;;;0.43;100.00
50867;BME280;36839;51.946;21.002;2023-01-24T04:58:31;102321.97;;;0.42;100.00
50867;BME280;36839;51.946;21.002;2023-01-24T05:01:00;102325.35;;;0.41;100.00
50867;BME280;36839;51.946;21.002;2023-01-24T05:03:27;102326.80;;;0.39;100.00
50867;BME280;36839;51.946;21.002;2023-01-24T05:05:56;102329.11;;;0.40;100.00
50867;BME280;36839;51.946;21.002;2023-01-24T05:08:24;102324.72;;;0.38;100.00
50867;BME280;36839;51.946;21.002;2023-01-24T05:10:53;102326.54;;;0.38;100.00
50867;BME280;36839;51.946;21.002;2023-01-24T05:13:20;102326.48;;;0.37;100.00
50867;BME280;36839;51.946;21.002;2023-01-24T05:15:49;102326.59;;;0.37;100.00
50867;BME280;36839;51.946;21.002;2023-01-24T05:18:17;102327.59;;;0.38;100.00
50867;BME280;36839;51.946;21.002;2023-01-24T05:20:48;102334.32;;;0.40;100.00
50867;BME280;36839;51.946;21.002;2023-01-24T05:23:15;102338.22;;;0.43;100.00
50867;BME280;36839;51.946;21.002;2023-01-24T05:25:43;102337.83;;;0.45;100.00
50867;BME280;36839;51.946;21.002;2023-01-24T05:28:13;102335.44;;;0.48;100.00
50867;BME280;36839;51.946;21.002;2023-01-24T05:30:51;102337.00;;;0.53;100.00
50867;BME280;36839;51.946;21.002;2023-01-24T05:33:20;102338.93;;;0.55;100.00
50867;BME280;36839;51.946;21.002;2023-01-24T05:35:57;102333.95;;;0.58;100.00
50867;BME280;36839;51.946;21.002;2023-01-24T05:38:30;102335.44;;;0.61;100.00
50867;BME280;36839;51.946;21.002;2023-01-24T05:41:00;102337.03;;;0.62;100.00
50867;BME280;36839;51.946;21.002;2023-01-24T05:43:32;102337.08;;;0.63;100.00
50867;BME280;36839;51.946;21.002;2023-01-24T05:46:02;102342.24;;;0.66;100.00
50867;BME280;36839;51.946;21.002;2023-01-24T05:48:36;102341.42;;;0.63;100.00
50867;BME280;36839;51.946;21.002;2023-01-24T05:51:06;102342.27;;;0.62;100.00
50867;BME280;36839;51.946;21.002;2023-01-24T05:53:37;102338.64;;;0.62;100.00
50867;BME280;36839;51.946;21.002;2023-01-24T05:56:14;102346.10;;;0.65;100.00
50867;BME280;36839;51.946;21.002;2023-01-24T05:58:44;102343.95;;;0.69;100.00
50867;BME280;36839;51.946;21.002;2023-01-24T06:03:46;102347.64;;;0.70;100.00
50867;BME280;36839;51.946;21.002;2023-01-24T06:06:16;102353.41;;;0.66;100.00
50867;BME280;36839;51.946;21.002;2023-01-24T06:08:46;102356.94;;;0.64;100.00
50867;BME280;36839;51.946;21.002;2023-01-24T06:11:19;102353.73;;;0.62;100.00
50867;BME280;36839;51.946;21.002;2023-01-24T06:13:47;102352.72;;;0.59;100.00
50867;BME280;36839;51.946;21.002;2023-01-24T06:16:20;102357.19;;;0.56;100.00
50867;BME280;36839;51.946;21.002;2023-01-24T06:18:49;102358.61;;;0.52;100.00
50867;BME280;36839;51.946;21.002;2023-01-24T06:21:34;102358.17;;;0.51;100.00
50867;BME280;36839;51.946;21.002;2023-01-24T06:24:05;102361.93;;;0.50;100.00
50867;BME280;36839;51.946;21.002;2023-01-24T06:26:34;102364.79;;;0.50;100.00
50867;BME280;36839;51.946;21.002;2023-01-24T06:29:02;102365.33;;;0.51;100.00
50867;BME280;36839;51.946;21.002;2023-01-24T06:31:57;102368.84;;;0.52;100.00
50867;BME280;36839;51.946;21.002;2023-01-24T06:40:26;102373.77;;;0.61;100.00
50867;BME280;36839;51.946;21.002;2023-01-24T06:42:56;102376.55;;;0.63;100.00
50867;BME280;36839;51.946;21.002;2023-01-24T06:45:24;102377.34;;;0.65;100.00
50867;BME280;36839;51.946;21.002;2023-01-24T06:47:52;102381.39;;;0.64;100.00
50867;BME280;36839;51.946;21.002;2023-01-24T06:50:22;102381.86;;;0.65;100.00
50867;BME280;36839;51.946;21.002;2023-01-24T06:52:58;102388.16;;;0.67;100.00
50867;BME280;36839;51.946;21.002;2023-01-24T06:55:31;102386.55;;;0.69;100.00
50867;BME280;36839;51.946;21.002;2023-01-24T06:58:00;102387.52;;;0.70;100.00
50867;BME280;36839;51.946;21.002;2023-01-24T07:00:28;102388.60;;;0.70;100.00
50867;BME280;36839;51.946;21.002;2023-01-24T07:03:01;102388.39;;;0.69;100.00
50867;BME280;36839;51.946;21.002;2023-01-24T07:05:32;102389.62;;;0.67;100.00
50867;BME280;36839;51.946;21.002;2023-01-24T07:08:02;102392.40;;;0.66;100.00
50867;BME280;36839;51.946;21.002;2023-01-24T07:10:32;102398.15;;;0.65;100.00
50867;BME280;36839;51.946;21.002;2023-01-24T07:13:01;102393.94;;;0.66;100.00
50867;BME280;36839;51.946;21.002;2023-01-24T07:15:30;102396.55;;;0.67;100.00
50867;BME280;36839;51.946;21.002;2023-01-24T07:18:06;102391.88;;;0.68;100.00
50867;BME280;36839;51.946;21.002;2023-01-24T07:20:36;102390.02;;;0.69;100.00
50867;BME280;36839;51.946;21.002;2023-01-24T07:23:03;102386.98;;;0.72;100.00
50867;BME280;36839;51.946;21.002;2023-01-24T07:25:34;102386.86;;;0.74;100.00
50867;BME280;36839;51.946;21.002;2023-01-24T07:28:06;102380.58;;;0.76;100.00
50867;BME280;36839;51.946;21.002;2023-01-24T07:30:34;102383.59;;;0.77;100.00
50867;BME280;36839;51.946;21.002;2023-01-24T07:33:01;102385.84;;;0.78;100.00
50867;BME280;36839;51.946;21.002;2023-01-24T07:35:29;102385.13;;;0.77;100.00
50867;BME280;36839;51.946;21.002;2023-01-24T07:37:56;102386.47;;;0.80;100.00
50867;BME280;36839;51.946;21.002;2023-01-24T07:40:24;102385.05;;;0.81;100.00
50867;BME280;36839;51.946;21.002;2023-01-24T07:42:55;102389.59;;;0.83;100.00
50867;BME280;36839;51.946;21.002;2023-01-24T07:45:22;102392.08;;;0.86;100.00
50867;BME280;36839;51.946;21.002;2023-01-24T07:47:54;102394.08;;;0.88;100.00
50867;BME280;36839;51.946;21.002;2023-01-24T07:50:23;102393.16;;;0.88;100.00
50867;BME280;36839;51.946;21.002;2023-01-24T07:52:56;102394.38;;;0.88;100.00
50867;BME280;36839;51.946;21.002;2023-01-24T07:55:24;102397.52;;;0.90;100.00
50867;BME280;36839;51.946;21.002;2023-01-24T07:58:00;102397.49;;;0.91;100.00
50867;BME280;36839;51.946;21.002;2023-01-24T08:00:29;102393.36;;;0.95;100.00
50867;BME280;36839;51.946;21.002;2023-01-24T08:02:57;102396.27;;;0.97;100.00
50867;BME280;36839;51.946;21.002;2023-01-24T08:05:26;102400.66;;;1.01;100.00
50867;BME280;36839;51.946;21.002;2023-01-24T08:07:54;102406.93;;;1.02;100.00
50867;BME280;36839;51.946;21.002;2023-01-24T08:10:24;102407.25;;;1.05;100.00
50867;BME280;36839;51.946;21.002;2023-01-24T08:12:52;102406.80;;;1.07;100.00
50867;BME280;36839;51.946;21.002;2023-01-24T08:15:20;102407.55;;;1.10;100.00
50867;BME280;36839;51.946;21.002;2023-01-24T08:17:49;102405.52;;;1.16;100.00
50867;BME280;36839;51.946;21.002;2023-01-24T08:20:19;102400.23;;;1.20;100.00
50867;BME280;36839;51.946;21.002;2023-01-24T08:22:46;102401.20;;;1.23;100.00
50867;BME280;36839;51.946;21.002;2023-01-24T08:25:14;102400.67;;;1.26;100.00
50867;BME280;36839;51.946;21.002;2023-01-24T08:27:46;102400.55;;;1.28;100.00
50867;BME280;36839;51.946;21.002;2023-01-24T08:30:13;102397.70;;;1.30;100.00
50867;BME280;36839;51.946;21.002;2023-01-24T08:32:44;102401.68;;;1.32;100.00
50867;BME280;36839;51.946;21.002;2023-01-24T08:35:11;102399.37;;;1.35;100.00
50867;BME280;36839;51.946;21.002;2023-01-24T08:37:39;102400.16;;;1.38;100.00
50867;BME280;36839;51.946;21.002;2023-01-24T08:40:09;102400.70;;;1.40;100.00
50867;BME280;36839;51.946;21.002;2023-01-24T08:42:38;102402.35;;;1.45;100.00
50867;BME280;36839;51.946;21.002;2023-01-24T08:45:05;102400.55;;;1.51;100.00
50867;BME280;36839;51.946;21.002;2023-01-24T08:47:35;102401.08;;;1.56;100.00
50867;BME280;36839;51.946;21.002;2023-01-24T08:50:02;102402.92;;;1.54;100.00
50867;BME280;36839;51.946;21.002;2023-01-24T08:52:33;102403.20;;;1.55;100.00
50867;BME280;36839;51.946;21.002;2023-01-24T08:55:00;102405.38;;;1.58;100.00
50867;BME280;36839;51.946;21.002;2023-01-24T08:57:30;102409.39;;;1.65;100.00
50867;BME280;36839;51.946;21.002;2023-01-24T08:59:58;102404.66;;;1.67;100.00
50867;BME280;36839;51.946;21.002;2023-01-24T09:02:25;102407.23;;;1.68;100.00
50867;BME280;36839;51.946;21.002;2023-01-24T09:04:52;102411.41;;;1.63;100.00
50867;BME280;36839;51.946;21.002;2023-01-24T09:07:25;102410.36;;;1.61;100.00
50867;BME280;36839;51.946;21.002;2023-01-24T09:09:52;102408.36;;;1.65;100.00
50867;BME280;36839;51.946;21.002;2023-01-24T09:12:20;102403.79;;;1.68;100.00
50867;BME280;36839;51.946;21.002;2023-01-24T09:14:48;102399.67;;;1.75;100.00
50867;BME280;36839;51.946;21.002;2023-01-24T09:17:17;102397.33;;;1.80;100.00
50867;BME280;36839;51.946;21.002;2023-01-24T09:19:44;102399.81;;;1.82;100.00
50867;BME280;36839;51.946;21.002;2023-01-24T09:22:12;102395.27;;;1.87;100.00
50867;BME280;36839;51.946;21.002;2023-01-24T09:24:41;102389.23;;;1.88;100.00
50867;BME280;36839;51.946;21.002;2023-01-24T09:27:11;102389.77;;;1.91;100.00
50867;BME280;36839;51.946;21.002;2023-01-24T09:29:47;102382.44;;;1.92;100.00
50867;BME280;36839;51.946;21.002;2023-01-24T09:32:15;102376.77;;;1.97;100.00
50867;BME280;36839;51.946;21.002;2023-01-24T09:34:46;102371.29;;;2.01;100.00
50867;BME280;36839;51.946;21.002;2023-01-24T09:37:19;102371.25;;;2.09;100.00
50867;BME280;36839;51.946;21.002;2023-01-24T09:39:55;102369.63;;;2.10;100.00
50867;BME280;36839;51.946;21.002;2023-01-24T09:42:51;102370.94;;;2.13;100.00
50867;BME280;36839;51.946;21.002;2023-01-24T09:45:36;102361.52;;;2.18;100.00
50867;BME280;36839;51.946;21.002;2023-01-24T09:48:09;102356.40;;;2.20;100.00
50867;BME280;36839;51.946;21.002;2023-01-24T09:50:45;102357.73;;;2.19;100.00
50867;BME280;36839;51.946;21.002;2023-01-24T09:53:41;102356.36;;;2.22;100.00
50867;BME280;36839;51.946;21.002;2023-01-24T09:56:37;102356.32;;;2.27;100.00
50867;BME280;36839;51.946;21.002;2023-01-24T10:02:16;102368.73;;;2.18;100.00
50867;BME280;36839;51.946;21.002;2023-01-24T10:04:45;102371.62;;;2.15;100.00
50867;BME280;36839;51.946;21.002;2023-01-24T10:23:46;102387.17;;;1.99;100.00
50867;BME280;36839;51.946;21.002;2023-01-24T10:29:00;102381.06;;;2.01;100.00
50867;BME280;36839;51.946;21.002;2023-01-24T10:31:41;102383.34;;;2.02;100.00
50867;BME280;36839;51.946;21.002;2023-01-24T10:34:44;102384.60;;;2.01;100.00
50867;BME280;36839;51.946;21.002;2023-01-24T10:37:21;102385.23;;;2.10;100.00
50867;BME280;36839;51.946;21.002;2023-01-24T10:39:49;102385.19;;;2.19;100.00
50867;BME280;36839;51.946;21.002;2023-01-24T10:42:26;102383.88;;;2.19;100.00
50867;BME280;36839;51.946;21.002;2023-01-24T10:45:12;102387.42;;;2.13;100.00
50867;BME280;36839;51.946;21.002;2023-01-24T10:47:58;102386.84;;;2.12;100.00
50867;BME280;36839;51.946;21.002;2023-01-24T10:50:41;102384.78;;;2.04;100.00
50867;BME280;36839;51.946;21.002;2023-01-24T10:53:27;102388.84;;;2.04;100.00
50867;BME280;36839;51.946;21.002;2023-01-24T10:56:01;102390.80;;;2.02;100.00
50867;BME280;36839;51.946;21.002;2023-01-24T11:01:07;102388.58;;;1.94;100.00
50867;BME280;36839;51.946;21.002;2023-01-24T11:03:40;102383.19;;;1.93;100.00
50867;BME280;36839;51.946;21.002;2023-01-24T11:06:22;102382.32;;;1.96;100.00
50867;BME280;36839;51.946;21.002;2023-01-24T11:09:01;102372.66;;;1.96;100.00
50867;BME280;36839;51.946;21.002;2023-01-24T11:11:30;102371.27;;;1.94;100.00
50867;BME280;36839;51.946;21.002;2023-01-24T11:14:01;102366.91;;;1.96;100.00
50867;BME280;36839;51.946;21.002;2023-01-24T11:16:34;102367.73;;;1.97;100.00
50867;BME280;36839;51.946;21.002;2023-01-24T11:21:53;102368.70;;;1.98;100.00
50867;BME280;36839;51.946;21.002;2023-01-24T11:24:21;102368.70;;;1.98;100.00
50867;BME280;36839;51.946;21.002;2023-01-24T11:27:14;102366.98;;;2.01;100.00
50867;BME280;36839;51.946;21.002;2023-01-24T11:29:44;102360.96;;;2.01;100.00
50867;BME280;36839;51.946;21.002;2023-01-24T11:32:48;102361.20;;;2.00;100.00
50867;BME280;36839;51.946;21.002;2023-01-24T11:35:25;102360.73;;;2.07;100.00
50867;BME280;36839;51.946;21.002;2023-01-24T11:41:02;102366.64;;;2.14;100.00
50867;BME280;36839;51.946;21.002;2023-01-24T11:44:35;102365.31;;;2.15;100.00
50867;BME280;36839;51.946;21.002;2023-01-24T11:47:00;102367.11;;;2.13;100.00
50867;BME280;36839;51.946;21.002;2023-01-24T11:49:58;102364.80;;;2.13;100.00
50867;BME280;36839;51.946;21.002;2023-01-24T11:55:55;102358.52;;;2.12;100.00
50867;BME280;36839;51.946;21.002;2023-01-24T11:58:41;102359.89;;;2.13;100.00
50867;BME280;36839;51.946;21.002;2023-01-24T12:07:22;102353.54;;;2.26;100.00
50867;BME280;36839;51.946;21.002;2023-01-24T12:09:59;102349.10;;;2.30;100.00
50867;BME280;36839;51.946;21.002;2023-01-24T12:12:37;102350.34;;;2.34;100.00
50867;BME280;36839;51.946;21.002;2023-01-24T12:21:26;102350.89;;;2.41;100.00
50867;BME280;36839;51.946;21.002;2023-01-24T12:24:07;102351.02;;;2.45;100.00
50867;BME280;36839;51.946;21.002;2023-01-24T12:26:48;102349.31;;;2.48;100.00
50867;BME280;36839;51.946;21.002;2023-01-24T12:29:21;102346.32;;;2.53;100.00
50867;BME280;36839;51.946;21.002;2023-01-24T12:31:56;102344.10;;;2.58;100.00
50867;BME280;36839;51.946;21.002;2023-01-24T12:35:01;102334.45;;;2.58;100.00
50867;BME280;36839;51.946;21.002;2023-01-24T12:37:40;102334.31;;;2.63;100.00
50867;BME280;36839;51.946;21.002;2023-01-24T12:43:00;102330.79;;;2.73;100.00
50867;BME280;36839;51.946;21.002;2023-01-24T12:45:44;102328.14;;;2.77;100.00
50867;BME280;36839;51.946;21.002;2023-01-24T12:48:34;102332.45;;;2.80;100.00
50867;BME280;36839;51.946;21.002;2023-01-24T12:51:32;102331.93;;;2.79;100.00
50867;BME280;36839;51.946;21.002;2023-01-24T12:54:44;102330.16;;;2.79;100.00
50867;BME280;36839;51.946;21.002;2023-01-24T12:57:27;102322.35;;;2.80;100.00
50867;BME280;36839;51.946;21.002;2023-01-24T12:59:58;102317.33;;;2.80;100.00
50867;BME280;36839;51.946;21.002;2023-01-24T13:06:01;102313.41;;;2.82;100.00
50867;BME280;36839;51.946;21.002;2023-01-24T13:11:43;102309.12;;;2.92;100.00
50867;BME280;36839;51.946;21.002;2023-01-24T13:14:22;102308.68;;;2.94;100.00
50867;BME280;36839;51.946;21.002;2023-01-24T13:17:19;102308.94;;;2.95;100.00
50867;BME280;36839;51.946;21.002;2023-01-24T13:26:32;102299.08;;;2.92;100.00
50867;BME280;36839;51.946;21.002;2023-01-24T13:29:37;102300.73;;;2.92;100.00
50867;BME280;36839;51.946;21.002;2023-01-24T13:32:21;102304.21;;;2.92;100.00
50867;BME280;36839;51.946;21.002;2023-01-24T13:34:50;102308.34;;;2.84;100.00
50867;BME280;36839;51.946;21.002;2023-01-24T13:37:34;102303.93;;;2.76;100.00
50867;BME280;36839;51.946;21.002;2023-01-24T13:43:02;102307.59;;;2.68;100.00
50867;BME280;36839;51.946;21.002;2023-01-24T14:03:24;102311.23;;;2.61;100.00
50867;BME280;36839;51.946;21.002;2023-01-24T14:11:31;102305.73;;;2.53;100.00
50867;BME280;36839;51.946;21.002;2023-01-24T14:14:28;102307.89;;;2.50;100.00
50867;BME280;36839;51.946;21.002;2023-01-24T14:17:02;102302.92;;;2.44;100.00
50867;BME280;36839;51.946;21.002;2023-01-24T14:19:37;102304.90;;;2.41;100.00
50867;BME280;36839;51.946;21.002;2023-01-24T14:25:00;102305.14;;;2.40;100.00
50867;BME280;36839;51.946;21.002;2023-01-24T14:27:38;102300.23;;;2.42;100.00
50867;BME280;36839;51.946;21.002;2023-01-24T14:30:35;102295.52;;;2.43;100.00
50867;BME280;36839;51.946;21.002;2023-01-24T14:33:46;102293.98;;;2.45;100.00
50867;BME280;36839;51.946;21.002;2023-01-24T14:36:26;102293.27;;;2.47;100.00
50867;BME280;36839;51.946;21.002;2023-01-24T14:41:42;102290.95;;;2.50;100.00
50867;BME280;36839;51.946;21.002;2023-01-24T14:44:24;102290.23;;;2.50;100.00
50867;BME280;36839;51.946;21.002;2023-01-24T14:47:03;102297.90;;;2.50;100.00
50867;BME280;36839;51.946;21.002;2023-01-24T14:49:43;102297.53;;;2.50;100.00
50867;BME280;36839;51.946;21.002;2023-01-24T14:54:50;102287.13;;;2.52;100.00
50867;BME280;36839;51.946;21.002;2023-01-24T14:57:30;102293.51;;;2.50;100.00
50867;BME280;36839;51.946;21.002;2023-01-24T15:00:06;102303.79;;;2.46;100.00
50867;BME280;36839;51.946;21.002;2023-01-24T15:02:50;102305.08;;;2.41;100.00
50867;BME280;36839;51.946;21.002;2023-01-24T15:05:36;102310.53;;;2.37;100.00